sensor_id;sensor_type;location;lat;lon;timestamp;pressure;altitude;pressure_sealevel;temperature;humidity
57038;BME280;59942;49.304;8.256;2022-07-23T00:00:45;100202.75;;;26.88;48.25
57038;BME280;59942;49.304;8.256;2022-07-23T00:03:13;100195.41;;;26.66;48.09
57038;BME280;59942;49.304;8.256;2022-07-23T00:05:43;100186.97;;;26.55;48.63
57038;BME280;59942;49.304;8.256;2022-07-23T00:08:10;100188.28;;;26.59;48.67
57038;BME280;59942;49.304;8.256;2022-07-23T00:10:40;100182.56;;;26.39;49.07
57038;BME280;59942;49.304;8.256;2022-07-23T00:13:07;100179.34;;;26.51;48.72
57038;BME280;59942;49.304;8.256;2022-07-23T00:15:35;100196.81;;;26.46;48.35
57038;BME280;59942;49.304;8.256;2022-07-23T00:18:02;100198.06;;;26.27;48.11
57038;BME280;59942;49.304;8.256;2022-07-23T00:20:31;100204.13;;;25.88;48.74
57038;BME280;59942;49.304;8.256;2022-07-23T00:22:58;100174.06;;;25.95;48.55
57038;BME280;59942;49.304;8.256;2022-07-23T00:25:26;100216.38;;;26.22;48.26
57038;BME280;59942;49.304;8.256;2022-07-23T00:28:00;100218.69;;;26.25;47.54
57038;BME280;59942;49.304;8.256;2022-07-23T00:30:29;100220.53;;;26.16;47.87
57038;BME280;59942;49.304;8.256;2022-07-23T00:33:19;100210.22;;;26.13;47.79
57038;BME280;59942;49.304;8.256;2022-07-23T00:35:50;100217.19;;;26.14;47.48
57038;BME280;59942;49.304;8.256;2022-07-23T00:38:25;100199.13;;;26.09;46.04
57038;BME280;59942;49.304;8.256;2022-07-23T00:40:53;100198.97;;;26.03;47.57
57038;BME280;59942;49.304;8.256;2022-07-23T00:43:20;100190.84;;;25.96;47.58
57038;BME280;59942;49.304;8.256;2022-07-23T00:45:48;100185.03;;;25.92;47.96
57038;BME280;59942;49.304;8.256;2022-07-23T00:48:16;100205.13;;;25.95;47.76
57038;BME280;59942;49.304;8.256;2022-07-23T00:50:43;100212.56;;;25.91;47.52
57038;BME280;59942;49.304;8.256;2022-07-23T00:53:11;100227.88;;;25.89;45.62
57038;BME280;59942;49.304;8.256;2022-07-23T00:55:39;100229.72;;;25.80;45.37
57038;BME280;59942;49.304;8.256;2022-07-23T00:58:06;100232.22;;;25.65;46.09
57038;BME280;59942;49.304;8.256;2022-07-23T01:00:35;100238.00;;;25.77;47.95
57038;BME280;59942;49.304;8.256;2022-07-23T01:03:04;100237.00;;;25.87;47.91
57038;BME280;59942;49.304;8.256;2022-07-23T01:05:32;100237.50;;;25.90;47.93
57038;BME280;59942;49.304;8.256;2022-07-23T01:08:00;100234.50;;;25.93;48.13
57038;BME280;59942;49.304;8.256;2022-07-23T01:10:27;100228.38;;;25.68;48.94
57038;BME280;59942;49.304;8.256;2022-07-23T01:13:04;100237.50;;;25.74;48.81
57038;BME280;59942;49.304;8.256;2022-07-23T01:15:32;100226.09;;;25.57;49.48
57038;BME280;59942;49.304;8.256;2022-07-23T01:18:00;100214.13;;;25.61;49.45
57038;BME280;59942;49.304;8.256;2022-07-23T01:20:27;100200.19;;;25.67;47.10
57038;BME280;59942;49.304;8.256;2022-07-23T01:22:56;100208.63;;;25.71;48.86
57038;BME280;59942;49.304;8.256;2022-07-23T01:25:25;100188.72;;;25.66;48.67
57038;BME280;59942;49.304;8.256;2022-07-23T01:27:54;100191.19;;;25.76;49.80
57038;BME280;59942;49.304;8.256;2022-07-23T01:30:24;100200.50;;;25.89;49.21
57038;BME280;59942;49.304;8.256;2022-07-23T01:32:51;100199.00;;;25.86;49.30
57038;BME280;59942;49.304;8.256;2022-07-23T01:35:18;100193.53;;;25.79;48.46
57038;BME280;59942;49.304;8.256;2022-07-23T01:37:46;100192.72;;;25.71;48.51
57038;BME280;59942;49.304;8.256;2022-07-23T01:40:16;100199.50;;;25.16;48.99
57038;BME280;59942;49.304;8.256;2022-07-23T01:42:48;100200.69;;;25.21;50.25
57038;BME280;59942;49.304;8.256;2022-07-23T01:45:17;100202.03;;;25.42;50.07
57038;BME280;59942;49.304;8.256;2022-07-23T01:47:46;100213.66;;;25.65;49.62
57038;BME280;59942;49.304;8.256;2022-07-23T01:50:14;100191.41;;;25.58;49.48
57038;BME280;59942;49.304;8.256;2022-07-23T01:52:41;100190.56;;;25.58;49.34
57038;BME280;59942;49.304;8.256;2022-07-23T01:55:09;100189.09;;;25.55;49.19
57038;BME280;59942;49.304;8.256;2022-07-23T01:57:44;100189.56;;;25.51;48.87
57038;BME280;59942;49.304;8.256;2022-07-23T02:00:11;100194.75;;;25.36;48.67
57038;BME280;59942;49.304;8.256;2022-07-23T02:02:38;100193.53;;;25.22;47.94
57038;BME280;59942;49.304;8.256;2022-07-23T02:05:06;100195.34;;;25.13;48.42
57038;BME280;59942;49.304;8.256;2022-07-23T02:07:33;100195.84;;;25.08;48.95
57038;BME280;59942;49.304;8.256;2022-07-23T02:10:01;100198.81;;;24.97;49.37
57038;BME280;59942;49.304;8.256;2022-07-23T02:12:28;100194.19;;;25.07;49.93
57038;BME280;59942;49.304;8.256;2022-07-23T02:14:55;100193.38;;;25.15;49.48
57038;BME280;59942;49.304;8.256;2022-07-23T02:17:23;100185.41;;;25.23;49.75
57038;BME280;59942;49.304;8.256;2022-07-23T02:19:49;100187.28;;;25.31;49.87
57038;BME280;59942;49.304;8.256;2022-07-23T02:22:17;100195.09;;;25.41;49.94
57038;BME280;59942;49.304;8.256;2022-07-23T02:24:44;100153.75;;;25.22;50.01
57038;BME280;59942;49.304;8.256;2022-07-23T02:27:11;100184.47;;;25.41;50.01
57038;BME280;59942;49.304;8.256;2022-07-23T02:29:37;100178.13;;;25.42;50.40
57038;BME280;59942;49.304;8.256;2022-07-23T02:32:05;100170.22;;;25.34;50.38
57038;BME280;59942;49.304;8.256;2022-07-23T02:34:33;100215.31;;;25.50;50.20
57038;BME280;59942;49.304;8.256;2022-07-23T02:37:00;100236.38;;;25.52;49.85
57038;BME280;59942;49.304;8.256;2022-07-23T02:39:27;100235.19;;;25.38;50.04
57038;BME280;59942;49.304;8.256;2022-07-23T02:41:54;100249.13;;;25.31;50.20
57038;BME280;59942;49.304;8.256;2022-07-23T02:44:24;100210.47;;;25.21;50.57
57038;BME280;59942;49.304;8.256;2022-07-23T02:46:51;100241.00;;;25.25;50.67
57038;BME280;59942;49.304;8.256;2022-07-23T02:49:19;100236.38;;;25.35;50.69
57038;BME280;59942;49.304;8.256;2022-07-23T02:51:46;100235.19;;;25.29;50.79
57038;BME280;59942;49.304;8.256;2022-07-23T02:54:13;100258.06;;;25.30;50.79
57038;BME280;59942;49.304;8.256;2022-07-23T02:56:40;100262.25;;;25.33;51.22
57038;BME280;59942;49.304;8.256;2022-07-23T02:59:11;100265.00;;;25.07;51.77
57038;BME280;59942;49.304;8.256;2022-07-23T03:01:38;100234.81;;;25.00;51.67
57038;BME280;59942;49.304;8.256;2022-07-23T03:04:08;100257.38;;;25.20;51.54
57038;BME280;59942;49.304;8.256;2022-07-23T03:06:37;100251.75;;;25.23;51.22
57038;BME280;59942;49.304;8.256;2022-07-23T03:09:05;100249.25;;;25.22;51.30
57038;BME280;59942;49.304;8.256;2022-07-23T03:11:32;100265.69;;;25.25;51.21
57038;BME280;59942;49.304;8.256;2022-07-23T03:13:59;100259.38;;;25.18;51.09
57038;BME280;59942;49.304;8.256;2022-07-23T03:16:26;100274.13;;;25.29;51.32
57038;BME280;59942;49.304;8.256;2022-07-23T03:18:53;100273.28;;;25.20;50.93
57038;BME280;59942;49.304;8.256;2022-07-23T03:21:20;100250.41;;;25.11;51.39
57038;BME280;59942;49.304;8.256;2022-07-23T03:23:47;100269.47;;;25.14;51.33
57038;BME280;59942;49.304;8.256;2022-07-23T03:26:14;100264.69;;;25.18;51.37
57038;BME280;59942;49.304;8.256;2022-07-23T03:28:41;100264.69;;;25.18;51.71
57038;BME280;59942;49.304;8.256;2022-07-23T03:31:08;100235.31;;;24.95;51.94
57038;BME280;59942;49.304;8.256;2022-07-23T03:33:35;100250.41;;;25.11;51.76
57038;BME280;59942;49.304;8.256;2022-07-23T03:36:02;100260.19;;;25.19;51.69
57038;BME280;59942;49.304;8.256;2022-07-23T03:38:34;100241.63;;;25.10;51.75
57038;BME280;59942;49.304;8.256;2022-07-23T03:41:03;100245.75;;;25.13;51.58
57038;BME280;59942;49.304;8.256;2022-07-23T03:43:31;100191.03;;;24.79;51.90
57038;BME280;59942;49.304;8.256;2022-07-23T03:45:58;100260.03;;;25.04;51.82
57038;BME280;59942;49.304;8.256;2022-07-23T03:48:25;100267.63;;;24.99;52.06
57038;BME280;59942;49.304;8.256;2022-07-23T03:50:53;100310.28;;;25.13;51.58
57038;BME280;59942;49.304;8.256;2022-07-23T03:53:25;100333.78;;;25.08;50.88
57038;BME280;59942;49.304;8.256;2022-07-23T03:55:58;100338.41;;;24.98;51.84
57038;BME280;59942;49.304;8.256;2022-07-23T03:58:32;100336.09;;;24.95;52.28
57038;BME280;59942;49.304;8.256;2022-07-23T04:01:02;100320.47;;;24.84;52.52
57038;BME280;59942;49.304;8.256;2022-07-23T04:03:39;100290.38;;;24.67;52.47
57038;BME280;59942;49.304;8.256;2022-07-23T04:06:12;100309.66;;;24.77;52.82
57038;BME280;59942;49.304;8.256;2022-07-23T04:08:43;100303.84;;;24.73;52.75
57038;BME280;59942;49.304;8.256;2022-07-23T04:11:17;100300.06;;;24.76;53.25
57038;BME280;59942;49.304;8.256;2022-07-23T04:13:54;100295.19;;;24.71;53.08
57038;BME280;59942;49.304;8.256;2022-07-23T04:16:52;100296.38;;;24.16;54.94
57038;BME280;59942;49.304;8.256;2022-07-23T04:19:21;100293.88;;;24.41;54.38
57038;BME280;59942;49.304;8.256;2022-07-23T04:21:49;100308.34;;;24.20;55.23
57038;BME280;59942;49.304;8.256;2022-07-23T04:54:23;100369.81;;;24.06;57.33
57038;BME280;59942;49.304;8.256;2022-07-23T04:57:29;100370.78;;;24.05;57.69
57038;BME280;59942;49.304;8.256;2022-07-23T05:04:08;100377.31;;;23.92;57.70
57038;BME280;59942;49.304;8.256;2022-07-23T05:07:19;100393.81;;;24.04;57.53
57038;BME280;59942;49.304;8.256;2022-07-23T05:10:17;100389.50;;;24.03;57.62
57038;BME280;59942;49.304;8.256;2022-07-23T05:17:18;100367.63;;;24.01;58.44
57038;BME280;59942;49.304;8.256;2022-07-23T05:24:50;100338.91;;;23.88;58.81
57038;BME280;59942;49.304;8.256;2022-07-23T05:28:20;100359.91;;;24.08;58.82
57038;BME280;59942;49.304;8.256;2022-07-23T05:35:25;100349.47;;;24.06;58.89
57038;BME280;59942;49.304;8.256;2022-07-23T05:41:47;100335.16;;;23.81;60.11
57038;BME280;59942;49.304;8.256;2022-07-23T05:44:50;100333.88;;;23.85;59.96
57038;BME280;59942;49.304;8.256;2022-07-23T05:48:05;100360.97;;;23.97;59.77
57038;BME280;59942;49.304;8.256;2022-07-23T05:51:18;100360.66;;;24.00;59.87
57038;BME280;59942;49.304;8.256;2022-07-23T05:54:05;100376.25;;;24.03;59.77
57038;BME280;59942;49.304;8.256;2022-07-23T05:57:31;100404.41;;;24.04;59.65
57038;BME280;59942;49.304;8.256;2022-07-23T06:00:17;100402.72;;;24.03;59.80
57038;BME280;59942;49.304;8.256;2022-07-23T06:03:23;100421.66;;;24.08;59.84
57038;BME280;59942;49.304;8.256;2022-07-23T06:06:11;100423.63;;;24.06;59.82
57038;BME280;59942;49.304;8.256;2022-07-23T06:08:50;100430.06;;;24.04;59.63
57038;BME280;59942;49.304;8.256;2022-07-23T06:11:46;100434.88;;;23.90;59.82
57038;BME280;59942;49.304;8.256;2022-07-23T06:14:46;100459.78;;;23.98;60.22
57038;BME280;59942;49.304;8.256;2022-07-23T06:17:58;100456.91;;;23.91;60.54
57038;BME280;59942;49.304;8.256;2022-07-23T06:20:54;100433.44;;;23.96;60.11
57038;BME280;59942;49.304;8.256;2022-07-23T06:23:49;100425.22;;;23.99;59.88
57038;BME280;59942;49.304;8.256;2022-07-23T06:26:34;100409.09;;;23.92;59.73
57038;BME280;59942;49.304;8.256;2022-07-23T06:29:27;100415.22;;;24.11;59.71
57038;BME280;59942;49.304;8.256;2022-07-23T06:31:57;100378.50;;;23.80;60.14
57038;BME280;59942;49.304;8.256;2022-07-23T06:37:47;100410.81;;;24.02;60.27
57038;BME280;59942;49.304;8.256;2022-07-23T06:40:54;100411.13;;;23.99;60.42
57038;BME280;59942;49.304;8.256;2022-07-23T06:47:03;100395.78;;;24.02;60.38
57038;BME280;59942;49.304;8.256;2022-07-23T06:49:41;100408.16;;;23.84;61.34
57038;BME280;59942;49.304;8.256;2022-07-23T06:52:23;100421.53;;;23.92;62.04
57038;BME280;59942;49.304;8.256;2022-07-23T06:55:04;100434.31;;;23.97;61.38
57038;BME280;59942;49.304;8.256;2022-07-23T06:57:49;100433.91;;;24.09;60.74
57038;BME280;59942;49.304;8.256;2022-07-23T07:00:59;100445.44;;;23.54;62.87
57038;BME280;59942;49.304;8.256;2022-07-23T07:03:44;100441.94;;;24.00;61.14
57038;BME280;59942;49.304;8.256;2022-07-23T07:06:23;100421.41;;;24.02;61.00
57038;BME280;59942;49.304;8.256;2022-07-23T07:09:03;100441.41;;;24.14;61.03
57038;BME280;59942;49.304;8.256;2022-07-23T07:12:20;100461.91;;;24.30;60.46
57038;BME280;59942;49.304;8.256;2022-07-23T07:14:57;100466.91;;;23.97;61.25
57038;BME280;59942;49.304;8.256;2022-07-23T07:17:58;100477.25;;;24.26;60.61
57038;BME280;59942;49.304;8.256;2022-07-23T07:20:32;100480.81;;;24.35;60.26
57038;BME280;59942;49.304;8.256;2022-07-23T07:23:09;100446.78;;;24.22;59.78
57038;BME280;59942;49.304;8.256;2022-07-23T07:25:55;100488.44;;;24.56;59.33
57038;BME280;59942;49.304;8.256;2022-07-23T07:28:53;100492.88;;;24.66;59.14
57038;BME280;59942;49.304;8.256;2022-07-23T07:31:23;100478.53;;;24.40;60.07
57038;BME280;59942;49.304;8.256;2022-07-23T07:34:16;100487.03;;;24.62;60.11
57038;BME280;59942;49.304;8.256;2022-07-23T07:36:59;100469.38;;;24.35;60.48
57038;BME280;59942;49.304;8.256;2022-07-23T07:40:16;100482.88;;;24.41;59.95
57038;BME280;59942;49.304;8.256;2022-07-23T07:42:54;100484.47;;;24.34;60.70
57038;BME280;59942;49.304;8.256;2022-07-23T07:45:29;100492.22;;;24.54;59.93
57038;BME280;59942;49.304;8.256;2022-07-23T07:48:28;100491.72;;;24.68;59.72
57038;BME280;59942;49.304;8.256;2022-07-23T07:51:37;100491.03;;;23.94;61.03
57038;BME280;59942;49.304;8.256;2022-07-23T07:54:44;100502.84;;;24.72;59.79
57038;BME280;59942;49.304;8.256;2022-07-23T07:57:56;100496.09;;;25.04;58.81
57038;BME280;59942;49.304;8.256;2022-07-23T08:04:41;100501.81;;;24.91;59.48
57038;BME280;59942;49.304;8.256;2022-07-23T08:07:34;100515.63;;;25.03;59.76
57038;BME280;59942;49.304;8.256;2022-07-23T08:10:38;100509.56;;;25.10;59.34
57038;BME280;59942;49.304;8.256;2022-07-23T08:13:45;100517.81;;;25.07;60.34
57038;BME280;59942;49.304;8.256;2022-07-23T08:20:01;100519.00;;;25.05;59.88
57038;BME280;59942;49.304;8.256;2022-07-23T08:23:14;100515.25;;;25.50;58.51
57038;BME280;59942;49.304;8.256;2022-07-23T08:28:53;100479.00;;;24.00;61.27
57038;BME280;59942;49.304;8.256;2022-07-23T08:32:01;100511.44;;;24.30;61.78
57038;BME280;59942;49.304;8.256;2022-07-23T08:34:54;100520.63;;;24.43;61.98
57038;BME280;59942;49.304;8.256;2022-07-23T08:37:41;100503.84;;;24.35;62.58
57038;BME280;59942;49.304;8.256;2022-07-23T08:40:12;100493.16;;;24.26;61.78
57038;BME280;59942;49.304;8.256;2022-07-23T08:42:39;100510.56;;;24.65;60.09
57038;BME280;59942;49.304;8.256;2022-07-23T08:45:08;100523.50;;;25.12;60.61
57038;BME280;59942;49.304;8.256;2022-07-23T08:47:37;100517.03;;;25.41;58.68
57038;BME280;59942;49.304;8.256;2022-07-23T08:50:07;100513.88;;;25.38;59.35
57038;BME280;59942;49.304;8.256;2022-07-23T08:52:37;100527.22;;;25.54;57.21
57038;BME280;59942;49.304;8.256;2022-07-23T08:55:07;100520.31;;;25.70;56.91
57038;BME280;59942;49.304;8.256;2022-07-23T08:57:35;100517.38;;;25.89;57.21
57038;BME280;59942;49.304;8.256;2022-07-23T09:00:05;100521.72;;;25.47;55.96
57038;BME280;59942;49.304;8.256;2022-07-23T09:02:40;100504.28;;;25.45;55.66
57038;BME280;59942;49.304;8.256;2022-07-23T09:05:09;100521.13;;;26.21;55.73
57038;BME280;59942;49.304;8.256;2022-07-23T09:10:30;100500.53;;;26.23;55.73
57038;BME280;59942;49.304;8.256;2022-07-23T09:13:29;100521.75;;;27.14;57.29
57038;BME280;59942;49.304;8.256;2022-07-23T09:21:07;100515.91;;;28.06;51.98
57038;BME280;59942;49.304;8.256;2022-07-23T09:28:53;100510.63;;;27.10;55.91
57038;BME280;59942;49.304;8.256;2022-07-23T09:31:21;100522.66;;;28.40;52.44
57038;BME280;59942;49.304;8.256;2022-07-23T09:33:49;100518.28;;;28.24;49.81
57038;BME280;59942;49.304;8.256;2022-07-23T09:36:27;100518.41;;;28.92;51.24
57038;BME280;59942;49.304;8.256;2022-07-23T09:38:54;100519.22;;;29.67;48.65
57038;BME280;59942;49.304;8.256;2022-07-23T09:41:21;100511.47;;;29.87;45.92
57038;BME280;59942;49.304;8.256;2022-07-23T09:43:56;100502.75;;;30.00;46.61
57038;BME280;59942;49.304;8.256;2022-07-23T09:46:27;100516.25;;;30.35;47.22
57038;BME280;59942;49.304;8.256;2022-07-23T09:48:56;100515.06;;;29.65;47.57
57038;BME280;59942;49.304;8.256;2022-07-23T09:51:24;100511.53;;;30.16;47.62
57038;BME280;59942;49.304;8.256;2022-07-23T09:54:04;100504.19;;;30.68;46.78
57038;BME280;59942;49.304;8.256;2022-07-23T09:56:33;100508.47;;;30.90;46.92
57038;BME280;59942;49.304;8.256;2022-07-23T09:59:02;100509.97;;;29.70;44.07
57038;BME280;59942;49.304;8.256;2022-07-23T10:01:39;100488.13;;;29.96;47.86
57038;BME280;59942;49.304;8.256;2022-07-23T10:04:07;100508.53;;;30.04;48.97
57038;BME280;59942;49.304;8.256;2022-07-23T10:06:34;100489.44;;;30.50;47.35
57038;BME280;59942;49.304;8.256;2022-07-23T10:09:03;100503.66;;;31.07;42.16
57038;BME280;59942;49.304;8.256;2022-07-23T10:11:51;100454.25;;;31.16;45.94
57038;BME280;59942;49.304;8.256;2022-07-23T10:14:32;100459.50;;;28.55;47.00
57038;BME280;59942;49.304;8.256;2022-07-23T10:17:21;100514.59;;;28.25;50.33
57038;BME280;59942;49.304;8.256;2022-07-23T10:20:27;100473.84;;;30.10;42.98
57038;BME280;59942;49.304;8.256;2022-07-23T10:30:38;100504.06;;;31.11;44.47
57038;BME280;59942;49.304;8.256;2022-07-23T10:39:48;100488.72;;;31.81;42.56
57038;BME280;59942;49.304;8.256;2022-07-23T10:43:24;100498.63;;;30.97;45.05
57038;BME280;59942;49.304;8.256;2022-07-23T10:46:24;100506.53;;;32.29;40.63
57038;BME280;59942;49.304;8.256;2022-07-23T10:49:27;100504.50;;;31.56;43.42
57038;BME280;59942;49.304;8.256;2022-07-23T10:52:25;100508.94;;;31.84;38.26
57038;BME280;59942;49.304;8.256;2022-07-23T10:57:53;100498.72;;;34.49;37.44
57038;BME280;59942;49.304;8.256;2022-07-23T11:00:31;100507.13;;;34.78;34.54
57038;BME280;59942;49.304;8.256;2022-07-23T11:05:56;100482.63;;;33.40;35.17
57038;BME280;59942;49.304;8.256;2022-07-23T11:08:46;100499.13;;;32.85;39.58
57038;BME280;59942;49.304;8.256;2022-07-23T11:11:22;100436.69;;;33.48;34.40
57038;BME280;59942;49.304;8.256;2022-07-23T11:14:04;100485.56;;;34.41;36.45
57038;BME280;59942;49.304;8.256;2022-07-23T11:17:00;100469.19;;;32.41;36.88
57038;BME280;59942;49.304;8.256;2022-07-23T11:19:30;100485.34;;;34.10;36.66
57038;BME280;59942;49.304;8.256;2022-07-23T11:22:00;100493.34;;;32.28;36.32
57038;BME280;59942;49.304;8.256;2022-07-23T11:24:51;100484.41;;;35.48;34.58
57038;BME280;59942;49.304;8.256;2022-07-23T11:27:43;100488.63;;;36.28;32.91
57038;BME280;59942;49.304;8.256;2022-07-23T11:39:48;100476.38;;;36.02;28.83
57038;BME280;59942;49.304;8.256;2022-07-23T11:42:35;100477.97;;;33.99;35.60
57038;BME280;59942;49.304;8.256;2022-07-23T11:48:01;100469.88;;;37.62;29.77
57038;BME280;59942;49.304;8.256;2022-07-23T11:50:59;100471.59;;;38.48;26.90
57038;BME280;59942;49.304;8.256;2022-07-23T11:54:07;100465.84;;;32.93;36.21
57038;BME280;59942;49.304;8.256;2022-07-23T11:57:00;100472.22;;;34.90;33.34
57038;BME280;59942;49.304;8.256;2022-07-23T11:59:33;100470.25;;;35.83;31.57
57038;BME280;59942;49.304;8.256;2022-07-23T12:02:04;100452.31;;;35.89;31.54
57038;BME280;59942;49.304;8.256;2022-07-23T12:04:47;100469.66;;;36.35;30.69
57038;BME280;59942;49.304;8.256;2022-07-23T12:10:10;100451.50;;;35.27;32.49
57038;BME280;59942;49.304;8.256;2022-07-23T12:12:51;100445.72;;;35.42;32.51
57038;BME280;59942;49.304;8.256;2022-07-23T12:15:24;100445.56;;;36.10;30.70
57038;BME280;59942;49.304;8.256;2022-07-23T12:17:53;100448.72;;;34.09;33.05
57038;BME280;59942;49.304;8.256;2022-07-23T12:20:23;100446.63;;;35.67;31.51
57038;BME280;59942;49.304;8.256;2022-07-23T12:22:53;100443.31;;;36.07;31.03
57038;BME280;59942;49.304;8.256;2022-07-23T12:25:24;100448.19;;;36.40;30.71
57038;BME280;59942;49.304;8.256;2022-07-23T12:30:38;100439.69;;;35.71;31.08
57038;BME280;59942;49.304;8.256;2022-07-23T12:33:07;100445.97;;;35.83;30.86
57038;BME280;59942;49.304;8.256;2022-07-23T12:35:40;100449.31;;;36.09;30.73
57038;BME280;59942;49.304;8.256;2022-07-23T12:38:11;100441.69;;;36.17;29.04
57038;BME280;59942;49.304;8.256;2022-07-23T12:43:31;100451.94;;;36.39;29.32
57038;BME280;59942;49.304;8.256;2022-07-23T12:51:39;100438.41;;;34.94;30.00
57038;BME280;59942;49.304;8.256;2022-07-23T12:54:12;100434.31;;;35.40;31.20
57038;BME280;59942;49.304;8.256;2022-07-23T12:56:44;100417.88;;;37.14;28.69
57038;BME280;59942;49.304;8.256;2022-07-23T12:59:14;100440.72;;;35.58;31.32
57038;BME280;59942;49.304;8.256;2022-07-23T13:01:57;100448.88;;;36.36;29.99
57038;BME280;59942;49.304;8.256;2022-07-23T13:04:28;100405.66;;;36.12;27.72
57038;BME280;59942;49.304;8.256;2022-07-23T13:06:57;100447.47;;;35.79;30.27
57038;BME280;59942;49.304;8.256;2022-07-23T13:09:28;100434.19;;;35.65;30.76
57038;BME280;59942;49.304;8.256;2022-07-23T13:11:59;100443.69;;;36.22;28.30
57038;BME280;59942;49.304;8.256;2022-07-23T13:14:27;100444.72;;;36.68;29.06
57038;BME280;59942;49.304;8.256;2022-07-23T13:16:57;100450.94;;;34.44;32.01
57038;BME280;59942;49.304;8.256;2022-07-23T13:19:25;100426.25;;;33.97;32.54
57038;BME280;59942;49.304;8.256;2022-07-23T13:21:53;100446.56;;;31.55;37.69
57038;BME280;59942;49.304;8.256;2022-07-23T13:24:21;100449.25;;;31.07;39.03
57038;BME280;59942;49.304;8.256;2022-07-23T13:26:48;100452.47;;;32.19;37.15
57038;BME280;59942;49.304;8.256;2022-07-23T13:29:19;100411.22;;;33.89;34.41
57038;BME280;59942;49.304;8.256;2022-07-23T13:31:46;100449.28;;;33.02;35.38
57038;BME280;59942;49.304;8.256;2022-07-23T13:34:17;100442.31;;;31.74;37.23
57038;BME280;59942;49.304;8.256;2022-07-23T13:36:44;100422.34;;;33.61;35.19
57038;BME280;59942;49.304;8.256;2022-07-23T13:39:11;100452.81;;;33.48;35.26
57038;BME280;59942;49.304;8.256;2022-07-23T13:41:38;100450.91;;;33.10;35.81
57038;BME280;59942;49.304;8.256;2022-07-23T13:44:15;100454.28;;;32.65;36.54
57038;BME280;59942;49.304;8.256;2022-07-23T13:46:42;100448.03;;;31.09;39.36
57038;BME280;59942;49.304;8.256;2022-07-23T13:49:12;100451.25;;;32.15;35.99
57038;BME280;59942;49.304;8.256;2022-07-23T13:51:39;100419.88;;;32.22;37.00
57038;BME280;59942;49.304;8.256;2022-07-23T13:54:08;100447.50;;;33.80;33.04
57038;BME280;59942;49.304;8.256;2022-07-23T13:56:35;100430.31;;;31.57;38.06
57038;BME280;59942;49.304;8.256;2022-07-23T13:59:03;100444.75;;;30.22;39.85
57038;BME280;59942;49.304;8.256;2022-07-23T14:01:33;100424.84;;;31.30;38.95
57038;BME280;59942;49.304;8.256;2022-07-23T14:04:11;100448.53;;;32.62;35.47
57038;BME280;59942;49.304;8.256;2022-07-23T14:06:38;100451.19;;;32.82;35.03
57038;BME280;59942;49.304;8.256;2022-07-23T14:09:06;100451.44;;;33.32;35.12
57038;BME280;59942;49.304;8.256;2022-07-23T14:11:34;100457.38;;;32.02;35.59
57038;BME280;59942;49.304;8.256;2022-07-23T14:14:02;100448.50;;;31.95;36.58
57038;BME280;59942;49.304;8.256;2022-07-23T14:16:29;100444.66;;;34.25;33.36
57038;BME280;59942;49.304;8.256;2022-07-23T14:18:56;100433.53;;;34.66;32.10
57038;BME280;59942;49.304;8.256;2022-07-23T14:21:23;100428.69;;;33.41;32.09
57038;BME280;59942;49.304;8.256;2022-07-23T14:23:50;100443.97;;;32.55;34.36
57038;BME280;59942;49.304;8.256;2022-07-23T14:26:18;100426.38;;;34.34;33.13
57038;BME280;59942;49.304;8.256;2022-07-23T14:28:45;100433.34;;;35.95;30.07
57038;BME280;59942;49.304;8.256;2022-07-23T14:31:14;100445.75;;;35.54;29.32
57038;BME280;59942;49.304;8.256;2022-07-23T14:33:47;100447.38;;;35.25;30.02
57038;BME280;59942;49.304;8.256;2022-07-23T14:36:15;100428.19;;;36.06;29.36
57038;BME280;59942;49.304;8.256;2022-07-23T14:38:42;100440.59;;;35.53;30.61
57038;BME280;59942;49.304;8.256;2022-07-23T14:41:09;100430.72;;;32.94;32.67
57038;BME280;59942;49.304;8.256;2022-07-23T14:43:37;100439.50;;;33.28;33.03
57038;BME280;59942;49.304;8.256;2022-07-23T14:46:05;100425.88;;;33.62;32.02
57038;BME280;59942;49.304;8.256;2022-07-23T14:48:32;100431.03;;;32.19;36.34
57038;BME280;59942;49.304;8.256;2022-07-23T14:50:59;100421.09;;;34.46;32.73
57038;BME280;59942;49.304;8.256;2022-07-23T14:53:28;100429.31;;;33.75;33.34
57038;BME280;59942;49.304;8.256;2022-07-23T14:55:55;100433.78;;;34.83;32.22
57038;BME280;59942;49.304;8.256;2022-07-23T14:58:23;100424.22;;;34.43;31.93
57038;BME280;59942;49.304;8.256;2022-07-23T15:00:51;100430.00;;;33.26;35.19
57038;BME280;59942;49.304;8.256;2022-07-23T15:03:21;100403.81;;;34.10;32.42
57038;BME280;59942;49.304;8.256;2022-07-23T15:06:01;100421.66;;;35.10;31.39
57038;BME280;59942;49.304;8.256;2022-07-23T15:08:28;100405.41;;;36.25;29.28
57038;BME280;59942;49.304;8.256;2022-07-23T15:10:55;100412.81;;;35.03;28.98
57038;BME280;59942;49.304;8.256;2022-07-23T15:13:22;100379.63;;;34.54;32.16
57038;BME280;59942;49.304;8.256;2022-07-23T15:15:54;100426.84;;;35.42;31.02
57038;BME280;59942;49.304;8.256;2022-07-23T15:18:22;100419.84;;;36.66;29.30
57038;BME280;59942;49.304;8.256;2022-07-23T15:20:49;100415.03;;;36.80;28.50
57038;BME280;59942;49.304;8.256;2022-07-23T15:23:17;100397.66;;;37.05;27.77
57038;BME280;59942;49.304;8.256;2022-07-23T15:25:44;100406.63;;;35.33;30.12
57038;BME280;59942;49.304;8.256;2022-07-23T15:28:16;100404.91;;;36.88;28.20
57038;BME280;59942;49.304;8.256;2022-07-23T15:30:50;100405.16;;;33.69;30.62
57038;BME280;59942;49.304;8.256;2022-07-23T15:33:20;100408.03;;;34.68;32.12
57038;BME280;59942;49.304;8.256;2022-07-23T15:35:47;100403.63;;;35.41;28.50
57038;BME280;59942;49.304;8.256;2022-07-23T15:38:15;100385.63;;;36.31;29.28
57038;BME280;59942;49.304;8.256;2022-07-23T15:40:51;100402.97;;;36.59;29.15
57038;BME280;59942;49.304;8.256;2022-07-23T15:43:18;100401.09;;;35.28;31.06